Flight Track Log - Related Links

Times and Time Zones

All times are in EDT time to prevent confusion due to time zone crossing. See the ASQ5102 flight status page for this flight to view local times or setup timezone preferences in your user account.

Time Position Orientation Groundspeed Altitude Reporting Facility
EDT Latitude Longitude Course Direction KTS MPH feet Rate Location/Type
Sat 12:06:20 PM 43.0153 -83.6614 64° Northeast 205 236 4,600  Level Cleveland Center
Sat 12:07:20 PM 43.0422 -83.5858 64° Northeast 217 250 7,100 2,579 Climbing Cleveland Center
Sat 12:08:21 PM 43.0650 -83.5075 68° East 217 250 9,800 2,550 Climbing Cleveland Center
Sat 12:09:20 PM 43.0736 -83.4169 83° East 222 255 12,200 2,017 Climbing Cleveland Center
Sat 12:10:20 PM 43.0444 -83.3331 115° Southeast 227 261 13,800 1,240 Climbing Cleveland Center
Sat 12:11:21 PM 42.9567 -83.3433 185° South 225 259 14,700 1,500 Climbing Cleveland Center
Sat 12:12:20 PM 42.8617 -83.3903 200° South 298 343 16,800 2,218 Climbing Cleveland Center
Sat 12:13:20 PM 42.7667 -83.4369 200° South 330 380 19,100 2,150 Climbing Cleveland Center
Sat 12:14:20 PM 42.6625 -83.4294 177° South 363 418 21,100 1,850 Climbing Cleveland Center
Sat 12:15:20 PM 42.5567 -83.4133 174° South 369 425 22,800 1,450 Climbing Cleveland Center
Sat 12:16:20 PM 42.4489 -83.3917 172° South 387 445 24,000 1,000 Climbing Cleveland Center
Sat 12:17:20 PM 42.3303 -83.3778 175° South 407 468 24,800 1,200 Climbing Cleveland Center
Sat 12:18:20 PM 42.2100 -83.3558 172° South 431 496 26,400 1,550 Climbing Cleveland Center
Sat 12:19:20 PM 42.1042 -83.4156 203° Southwest 420 483 27,900 1,500 Climbing Cleveland Center
Sat 12:20:20 PM 41.9919 -83.4858 205° Southwest 426 490 29,400 1,500 Climbing Cleveland Center
Sat 12:21:20 PM 41.8903 -83.5539 206° Southwest 426 490 30,900 1,200 Climbing Cleveland Center
Sat 12:22:20 PM 41.7928 -83.6106 203° Southwest 426 490 31,800 950 Climbing Cleveland Center
Sat 12:23:20 PM 41.6847 -83.6806 206° Southwest 426 490 32,800 1,000 Climbing Cleveland Center
Sat 12:24:20 PM 41.5764 -83.7450 204° Southwest 426 490 33,800 1,000 Climbing Cleveland Center
Sat 12:25:20 PM 41.4703 -83.8144 206° Southwest 426 490 34,800 1,000 Climbing Cleveland Center
Sat 12:26:20 PM 41.3664 -83.8786 205° Southwest 426 490 35,800 600 Climbing Cleveland Center
Sat 12:27:20 PM 41.2603 -83.9422 204° Southwest 426 490 36,000 69 Climbing Cleveland Center
Sat 12:29:14 PM 41.0433 -84.0761 205° Southwest 441 507 36,000  Level Indianapolis Center
Sat 12:30:15 PM 40.9389 -84.1419 205° Southwest 437 503 36,000  Level Indianapolis Center
Sat 12:31:17 PM 40.8294 -84.2092 205° Southwest 432 497 36,000  Level Indianapolis Center
Sat 12:32:18 PM 40.7225 -84.2739 205° Southwest 421 484 36,000  Level Indianapolis Center
Sat 12:33:20 PM 40.6158 -84.3378 204° Southwest 420 483 36,000  Level Indianapolis Center
Sat 12:34:21 PM 40.4914 -84.4144 205° Southwest 421 484 36,000  Level Indianapolis Center
Sat 12:35:23 PM 40.3842 -84.4783 204° Southwest 422 486 36,000  Level Indianapolis Center
Sat 12:36:25 PM 40.2778 -84.5422 205° Southwest 418 481 36,000  Level Indianapolis Center
Sat 12:37:26 PM 40.1697 -84.6064 204° Southwest 423 487 36,000  Level Indianapolis Center
Sat 12:38:28 PM 40.0622 -84.6714 205° Southwest 423 487 36,000  Level Indianapolis Center
Sat 12:39:29 PM 39.9542 -84.7350 204° Southwest 423 487 36,000  Level Indianapolis Center
Sat 12:40:31 PM 39.8472 -84.7981 204° Southwest 421 484 36,000  Level Indianapolis Center
Sat 12:41:32 PM 39.7386 -84.8617 204° Southwest 425 489 36,000  Level Indianapolis Center
Sat 12:42:34 PM 39.6156 -84.9331 204° Southwest 422 486 36,000  Level Indianapolis Center
Sat 12:43:36 PM 39.5086 -84.9967 205° Southwest 422 486 36,000  Level Indianapolis Center
Sat 12:44:37 PM 39.4025 -85.0583 204° Southwest 418 481 36,000  Level Indianapolis Center
Sat 12:45:39 PM 39.2944 -85.1203 204° Southwest 421 484 36,000  Level Indianapolis Center
Sat 12:46:40 PM 39.1869 -85.1822 204° Southwest 422 486 36,000  Level Indianapolis Center
Sat 12:47:42 PM 39.0803 -85.2436 204° Southwest 421 484 36,000  Level Indianapolis Center
Sat 12:48:43 PM 38.9750 -85.3056 205° Southwest 417 480 36,000  Level Indianapolis Center
Sat 12:49:45 PM 38.8689 -85.3667 204° Southwest 416 479 36,000  Level Indianapolis Center
Sat 12:50:47 PM 38.7622 -85.4264 204° Southwest 417 480 36,000  Level Indianapolis Center
Sat 12:51:48 PM 38.6356 -85.4981 204° Southwest 414 476 36,000  Level Indianapolis Center
Sat 12:52:50 PM 38.5336 -85.5572 204° Southwest 413 475 36,000  Level Indianapolis Center
Sat 12:53:51 PM 38.4261 -85.6164 203° Southwest 416 479 36,000 -49 Level Indianapolis Center
Sat 12:54:53 PM 38.3211 -85.6769 204° Southwest 412 474 35,900 -488 Descending Indianapolis Center
Sat 12:55:54 PM 38.2128 -85.7367 203° Southwest 417 480 35,000 -439 Descending Indianapolis Center
Sat 12:56:56 PM 38.1000 -85.8000 204° Southwest 431 496 35,000  Level Indianapolis Center
Sat 12:57:58 PM 37.9886 -85.8628 204° Southwest 433 498 35,000  Level Indianapolis Center
Sat 12:58:59 PM 37.8792 -85.9219 203° Southwest 424 488 35,000  Level Indianapolis Center
Sat 01:00:01 PM 37.7714 -85.9836 204° Southwest 423 487 35,000  Level Indianapolis Center
Sat 01:01:02 PM 37.6442 -86.0525 203° Southwest 412 474 35,000  Level Indianapolis Center
Sat 01:02:04 PM 37.5511 -86.1039 204° Southwest 407 468 35,000  Level Indianapolis Center
Sat 01:03:06 PM 37.4464 -86.1625 204° Southwest 408 470 35,000  Level Indianapolis Center
Sat 01:04:07 PM 37.3425 -86.2189 203° Southwest 404 465 35,000  Level Indianapolis Center
Sat 01:05:09 PM 37.2236 -86.2839 204° Southwest 399 459 35,000  Level Indianapolis Center
Sat 01:06:11 PM 37.1211 -86.3392 203° Southwest 397 457 35,000  Level Indianapolis Center
Sat 01:07:02 PM 37.0308 -86.3889 204° Southwest 407 468 35,000  Level Memphis Center
Sat 01:08:02 PM 36.9219 -86.4358 199° South 412 474 35,000  Level Memphis Center
Sat 01:09:02 PM 36.7989 -86.4342 179° South 426 490 35,000  Level Memphis Center
Sat 01:10:02 PM 36.6717 -86.4247 177° South 440 506 35,000  Level Memphis Center
Sat 01:11:02 PM 36.5461 -86.4181 178° South 454 522 35,000  Level Memphis Center
Sat 01:12:02 PM 36.4314 -86.4106 177° South 459 528 35,000  Level Memphis Center
Sat 01:13:02 PM 36.3061 -86.4039 178° South 464 534 35,000  Level Memphis Center
Sat 01:14:02 PM 36.1786 -86.3947 177° South 464 534 35,000 -400 Level Memphis Center
Sat 01:15:02 PM 36.0386 -86.3861 177° South 464 534 34,200 -603 Descending Memphis Center
Sat 01:17:21 PM 35.7444 -86.3542 175° South 466 536 33,000 -362 Descending Atlanta Center
Sat 01:18:21 PM 35.6269 -86.2744 151° Southeast 461 531 33,000  Level Atlanta Center
Sat 01:19:21 PM 35.5119 -86.1819 147° Southeast 482 555 33,000  Level Atlanta Center
Sat 01:20:21 PM 35.3986 -86.0922 147° Southeast 495 570 33,000  Level Atlanta Center
Sat 01:21:21 PM 35.2956 -86.0108 147° Southeast 495 570 33,000  Level Atlanta Center
Sat 01:22:21 PM 35.1822 -85.9217 147° Southeast 488 562 33,000  Level Atlanta Center
Sat 01:23:21 PM 35.0711 -85.8306 146° Southeast 488 562 33,000  Level Atlanta Center
Sat 01:24:21 PM 34.9553 -85.7417 148° Southeast 488 562 33,000 -900 Level Atlanta Center
Sat 01:25:21 PM 34.8233 -85.6378 147° Southeast 501 577 31,200 -2,250 Descending Atlanta Center
Sat 01:26:21 PM 34.7056 -85.5472 148° Southeast 506 582 28,500 -2,700 Descending Atlanta Center
Sat 01:27:21 PM 34.5939 -85.4569 146° Southeast 498 573 25,800 -2,600 Descending Atlanta Center
Sat 01:28:21 PM 34.4822 -85.3694 147° Southeast 487 560 23,300 -2,300 Descending Atlanta Center
Sat 01:29:21 PM 34.3847 -85.2947 148° Southeast 474 545 21,200 -2,492 Descending Atlanta Center
Sat 01:31:24 PM 34.1667 -85.1167 146° Southeast 430 495 15,700 -2,367 Descending Atlanta TRACON
Sat 01:32:21 PM 34.0969 -85.0347 136° Southeast 422 486 14,100 -872 Descending Atlanta Center
Sat 01:33:21 PM 34.0186 -84.9361 134° Southeast 404 465 14,000 -50 Descending Atlanta Center
Sat 01:34:21 PM 33.9378 -84.8325 133° Southeast 416 479 14,000  Level Atlanta Center
Sat 01:35:21 PM 33.8592 -84.7342 134° Southeast 416 479 14,000  Level Atlanta Center
Sat 01:36:21 PM 33.7906 -84.6486 134° Southeast 370 426 14,000 -600 Level Atlanta Center
Sat 01:37:21 PM 33.7389 -84.5758 130° Southeast 307 353 12,800 -1,431 Descending Atlanta Center
Sat 01:38:31 PM 33.7333 -84.4500 93° East 278 320 10,900 -1,615 Descending Atlanta TRACON
Sat 01:39:31 PM 33.7333 -84.3667 90° East 273 314 9,300 -1,714 Descending Atlanta TRACON
Sat 01:40:37 PM 33.7333 -84.2667 90° East 264 304 7,300 -1,571 Descending Atlanta TRACON
Sat 01:41:37 PM 33.7333 -84.1833 90° East 246 283 6,000 -1,150 Descending Atlanta TRACON
Sat 01:42:37 PM 33.7333 -84.1167 90° East 243 280 5,000 -526 Descending Atlanta TRACON
Sat 01:43:31 PM 33.7333 -84.0333 90° East 240 276 5,000  Level Atlanta TRACON
Sat 01:44:37 PM 33.6667 -84.0167 168° South 243 280 5,000  Level Atlanta TRACON
Sat 01:45:38 PM 33.6500 -84.0833 253° West 210 242 5,000  Level Atlanta TRACON
Sat 01:46:38 PM 33.6500 -84.1333 270° West 184 212 5,000 -300 Level Atlanta TRACON
Sat 01:47:38 PM 33.6500 -84.2000 270° West 183 211 4,400 -850 Descending Atlanta TRACON
Sat 01:48:38 PM 33.6500 -84.2667 270° West 184 212 3,300 -1,000 Descending Atlanta TRACON
Sat 01:49:38 PM 33.6500 -84.3167 270° West 174 200 2,400 -800 Descending Atlanta TRACON
Sat 01:50:38 PM 33.6500 -84.3667 270° West 141 162 1,700 -700 Descending Atlanta TRACON
Sat 01:52:00 PM 33.6333 -84.4167 243° Southwest  Level FlightAware Approximate
Sat 01:59:00 PM 33.6367 -84.4279 243° Southwest  Level Estimated
Sat 02:00:00 PM 33.6367 -84.4279 243° Southwest  Level Estimated

Login

Don't have an account? Register now (free) for customized features, flight alerts, and more!